createdAt,value
2019-03-08T00:00:27.965Z,6.20
2019-03-08T00:02:55.045Z,6.00
2019-03-08T00:05:22.209Z,5.90
2019-03-08T00:07:49.057Z,5.90
2019-03-08T00:10:16.195Z,5.80
2019-03-08T00:12:43.308Z,5.70
2019-03-08T00:15:10.934Z,5.70
2019-03-08T00:17:37.790Z,5.70
2019-03-08T00:20:05.433Z,5.70
2019-03-08T00:22:32.410Z,5.80
2019-03-08T00:24:59.290Z,5.80
2019-03-08T00:27:26.070Z,5.70
2019-03-08T00:29:53.206Z,5.60
2019-03-08T00:32:20.493Z,5.50
2019-03-08T00:34:47.405Z,5.40
2019-03-08T00:37:14.675Z,5.30
2019-03-08T00:39:41.560Z,5.30
2019-03-08T00:42:08.596Z,5.20
2019-03-08T00:44:35.431Z,5.30
2019-03-08T00:47:02.471Z,5.20
2019-03-08T00:49:29.568Z,5.30
2019-03-08T00:51:56.418Z,5.20
2019-03-08T00:54:23.349Z,5.40
2019-03-08T00:56:50.177Z,5.40
2019-03-08T00:59:17.097Z,5.50
2019-03-08T01:01:44.039Z,5.40
2019-03-08T01:04:11.025Z,5.80
2019-03-08T01:06:37.823Z,6.40
2019-03-08T01:09:05.495Z,5.50
2019-03-08T01:11:32.638Z,5.40
2019-03-08T01:13:59.785Z,5.50
2019-03-08T01:16:26.890Z,5.60
2019-03-08T01:18:53.722Z,5.80
2019-03-08T01:21:20.643Z,6.20
2019-03-08T01:23:47.708Z,6.40
2019-03-08T01:26:14.485Z,6.70
2019-03-08T01:28:41.601Z,6.80
2019-03-08T01:31:08.710Z,7.20
2019-03-08T01:33:35.547Z,7.20
2019-03-08T01:36:02.801Z,7.10
2019-03-08T01:38:29.622Z,7.20
2019-03-08T01:40:56.612Z,7.30
2019-03-08T01:43:23.507Z,7.20
2019-03-08T01:45:50.746Z,7.60
2019-03-08T01:48:17.833Z,7.10
2019-03-08T01:50:44.825Z,7.10
2019-03-08T01:53:11.717Z,7.00
2019-03-08T01:55:38.744Z,7.00
2019-03-08T01:58:05.778Z,6.90
2019-03-08T02:00:33.142Z,6.90
2019-03-08T02:03:00.215Z,6.90
2019-03-08T02:05:27.236Z,6.90
2019-03-08T02:07:54.306Z,6.80
2019-03-08T02:10:21.165Z,6.70
2019-03-08T02:12:48.020Z,6.60
2019-03-08T02:15:15.136Z,7.00
2019-03-08T02:17:42.409Z,6.60
2019-03-08T02:20:12.629Z,6.60
2019-03-08T02:22:39.536Z,6.60
2019-03-08T02:25:06.728Z,6.70
2019-03-08T02:27:33.625Z,6.70
2019-03-08T02:30:00.571Z,6.70
2019-03-08T02:32:27.530Z,6.80
2019-03-08T02:34:54.435Z,6.80
2019-03-08T02:37:21.321Z,6.90
2019-03-08T02:39:48.346Z,7.00
2019-03-08T02:42:15.192Z,7.00
2019-03-08T02:44:42.020Z,7.10
2019-03-08T02:47:08.813Z,7.00
2019-03-08T02:49:35.781Z,7.00
2019-03-08T02:52:03.827Z,7.00
2019-03-08T02:54:30.622Z,7.00
2019-03-08T02:56:57.490Z,6.90
2019-03-08T02:59:24.505Z,6.90
2019-03-08T03:01:51.502Z,6.80
2019-03-08T03:04:18.346Z,6.80
2019-03-08T03:06:45.351Z,6.80
2019-03-08T03:09:12.551Z,6.90
2019-03-08T03:11:39.733Z,7.00
2019-03-08T03:14:06.641Z,7.00
2019-03-08T03:16:33.434Z,6.90
2019-03-08T03:19:00.313Z,6.80
2019-03-08T03:21:27.082Z,6.80
2019-03-08T03:23:53.961Z,6.70
2019-03-08T03:26:20.935Z,6.70
2019-03-08T03:28:48.038Z,6.10
2019-03-08T03:31:14.962Z,6.70
2019-03-08T03:33:41.785Z,6.70
2019-03-08T03:36:08.927Z,6.90
2019-03-08T03:38:35.705Z,6.90
2019-03-08T03:41:02.835Z,6.90
2019-03-08T03:43:30.079Z,6.90
2019-03-08T03:45:56.976Z,6.90
2019-03-08T03:48:23.937Z,6.80
2019-03-08T03:50:50.819Z,6.70
2019-03-08T03:53:17.625Z,6.70
2019-03-08T03:55:44.530Z,6.70
2019-03-08T03:58:11.374Z,6.70
2019-03-08T04:00:38.633Z,6.80
2019-03-08T04:03:05.602Z,6.80
2019-03-08T04:05:32.704Z,6.70
2019-03-08T04:10:47.357Z,6.80
2019-03-08T04:13:14.286Z,7.00
2019-03-08T04:15:41.283Z,6.80
2019-03-08T04:18:08.288Z,6.90
2019-03-08T04:20:54.903Z,7.00
2019-03-08T04:23:41.462Z,8.40
2019-03-08T04:26:28.062Z,7.30
2019-03-08T04:28:55.410Z,7.00
2019-03-08T04:31:41.897Z,6.90
2019-03-08T04:34:28.537Z,6.90
2019-03-08T04:37:15.172Z,6.80
2019-03-08T04:40:01.736Z,6.90
2019-03-08T04:42:48.454Z,6.90
2019-03-08T04:45:34.860Z,7.10
2019-03-08T04:48:21.363Z,6.90
2019-03-08T04:51:08.027Z,7.10
2019-03-08T04:53:54.679Z,7.20
2019-03-08T04:56:41.182Z,8.70
2019-03-08T04:59:20.673Z,6.80
2019-03-08T05:02:00.873Z,7.20
2019-03-08T05:04:41.044Z,9.50
2019-03-08T05:07:20.282Z,7.20
2019-03-08T05:09:47.673Z,7.20
2019-03-08T05:12:34.348Z,7.20
2019-03-08T05:15:20.883Z,8.00
2019-03-08T05:18:07.530Z,8.70
2019-03-08T05:20:54.087Z,7.20
2019-03-08T05:23:40.536Z,7.10
2019-03-08T05:26:26.967Z,7.00
2019-03-08T05:29:13.384Z,8.00
2019-03-08T05:31:40.148Z,8.00
2019-03-08T05:34:26.709Z,7.00
2019-03-08T05:37:13.768Z,6.70
2019-03-08T05:40:01.532Z,7.50
2019-03-08T05:42:48.145Z,6.40
2019-03-08T05:45:34.651Z,5.90
2019-03-08T05:48:21.294Z,6.60
2019-03-08T05:51:08.422Z,6.70
2019-03-08T05:53:54.822Z,6.70
2019-03-08T05:56:41.279Z,6.60
2019-03-08T05:59:20.956Z,6.60
2019-03-08T06:02:01.228Z,7.20
2019-03-08T06:04:41.010Z,6.50
2019-03-08T06:07:20.218Z,6.60
2019-03-08T06:10:00.338Z,6.20
2019-03-08T06:12:40.356Z,8.00
2019-03-08T06:15:20.451Z,6.50
2019-03-08T06:18:00.468Z,5.80
2019-03-08T06:20:27.849Z,6.50
2019-03-08T06:23:14.249Z,6.50
2019-03-08T06:26:01.030Z,6.30
2019-03-08T06:28:47.594Z,6.50
2019-03-08T06:31:14.652Z,7.00
2019-03-08T06:34:01.193Z,6.60
2019-03-08T06:36:47.616Z,6.50
2019-03-08T06:42:21.485Z,6.70
2019-03-08T06:44:48.340Z,7.10
2019-03-08T06:50:21.574Z,7.00
2019-03-08T06:53:08.237Z,6.40
2019-03-08T06:55:35.200Z,7.10
2019-03-08T06:58:41.930Z,7.80
2019-03-08T07:10:04.433Z,7.30
2019-03-08T07:12:50.882Z,7.40
2019-03-08T07:15:37.486Z,7.50
2019-03-08T07:18:24.139Z,7.30
2019-03-08T07:21:30.315Z,7.20
2019-03-08T07:24:23.499Z,9.20
2019-03-08T07:27:29.539Z,9.30
2019-03-08T07:30:35.710Z,8.30
2019-03-08T07:33:41.772Z,7.70
2019-03-08T07:36:47.880Z,8.90
2019-03-08T07:39:54.594Z,8.70
2019-03-08T07:43:00.782Z,8.60
2019-03-08T07:46:06.830Z,8.10
2019-03-08T07:49:13.264Z,9.60
2019-03-08T07:54:54.499Z,8.00
2019-03-08T07:58:00.555Z,8.50
2019-03-08T08:01:05.665Z,8.50
2019-03-08T08:03:58.298Z,9.30
2019-03-08T08:06:57.351Z,10.40
2019-03-08T08:12:29.144Z,9.50
2019-03-08T08:15:35.479Z,9.20
2019-03-08T08:18:41.704Z,10.70
2019-03-08T08:21:34.612Z,11.60
2019-03-08T08:27:29.585Z,14.00
2019-03-08T08:30:35.825Z,11.80
2019-03-08T08:33:41.977Z,12.80
2019-03-08T08:36:48.152Z,11.60
2019-03-08T08:39:54.187Z,11.20
2019-03-08T08:43:00.260Z,9.40
2019-03-08T08:46:06.634Z,10.50
2019-03-08T08:49:12.850Z,9.60
2019-03-08T08:51:59.372Z,8.50
2019-03-08T08:55:05.434Z,9.80
2019-03-08T08:58:11.702Z,9.70
2019-03-08T09:01:11.226Z,9.10
2019-03-08T09:03:57.754Z,9.90
2019-03-08T09:07:03.820Z,10.70
2019-03-08T09:10:10.186Z,10.80
2019-03-08T09:12:57.096Z,9.30
2019-03-08T09:16:03.461Z,8.90
2019-03-08T09:19:09.690Z,9.00
2019-03-08T09:21:43.965Z,8.60
2019-03-08T09:24:50.135Z,8.70
2019-03-08T09:27:36.562Z,8.80
2019-03-08T09:30:43.083Z,8.90
2019-03-08T09:33:34.440Z,9.00
2019-03-08T09:39:27.359Z,13.30
2019-03-08T09:42:33.914Z,13.60
2019-03-08T09:45:40.220Z,12.90
2019-03-08T09:48:48.945Z,14.00
2019-03-08T09:51:54.511Z,14.30
2019-03-08T09:55:00.666Z,14.10
2019-03-08T09:58:06.929Z,14.10
2019-03-08T10:01:06.708Z,12.60
2019-03-08T10:03:55.305Z,13.90
2019-03-08T10:07:01.878Z,13.90
2019-03-08T10:09:57.606Z,13.60
2019-03-08T10:13:03.795Z,12.40
2019-03-08T10:16:10.017Z,13.70
2019-03-08T10:19:07.290Z,15.40
2019-03-08T10:22:02.674Z,15.30
2019-03-08T10:25:08.725Z,14.20
2019-03-08T10:28:15.050Z,16.80
2019-03-08T10:31:09.140Z,11.50
2019-03-08T10:34:06.044Z,13.00
2019-03-08T10:40:07.266Z,13.60
2019-03-08T10:42:53.918Z,14.70
2019-03-08T10:45:40.553Z,13.70
2019-03-08T10:51:42.814Z,12.70
2019-03-08T10:54:49.351Z,14.70
2019-03-08T10:57:29.226Z,15.90
2019-03-08T11:00:17.313Z,15.60
2019-03-08T11:06:25.060Z,14.10
2019-03-08T11:09:50.833Z,14.30
2019-03-08T11:12:56.900Z,14.80
2019-03-08T11:16:02.973Z,13.10
2019-03-08T11:19:09.218Z,13.90
2019-03-08T11:22:04.242Z,12.50
2019-03-08T11:25:10.670Z,12.10
2019-03-08T11:28:21.099Z,12.30
2019-03-08T11:31:25.368Z,11.80
2019-03-08T11:34:31.537Z,13.80
2019-03-08T11:37:37.926Z,14.60
2019-03-08T11:40:44.126Z,13.70
2019-03-08T11:43:50.231Z,12.50
2019-03-08T11:46:46.695Z,10.50
2019-03-08T11:49:52.952Z,13.40
2019-03-08T11:52:59.010Z,13.80
2019-03-08T11:56:05.154Z,14.40
2019-03-08T11:59:00.522Z,12.80
2019-03-08T12:02:06.735Z,12.50
2019-03-08T12:05:12.971Z,12.40
2019-03-08T12:07:59.687Z,14.70
2019-03-08T12:11:06.072Z,13.50
2019-03-08T12:14:12.130Z,12.20
2019-03-08T12:17:18.268Z,11.40
2019-03-08T12:20:25.265Z,11.60
2019-03-08T12:23:31.437Z,12.70
2019-03-08T12:26:37.876Z,12.80
2019-03-08T12:29:43.939Z,12.70
2019-03-08T12:32:49.989Z,13.50
2019-03-08T12:35:56.187Z,13.90
2019-03-08T12:39:02.252Z,13.30
2019-03-08T12:42:08.669Z,14.30
2019-03-08T12:45:14.839Z,12.50
2019-03-08T12:48:24.134Z,12.90
2019-03-08T12:51:29.265Z,13.10
2019-03-08T12:54:35.487Z,12.40
2019-03-08T13:00:37.695Z,12.20
2019-03-08T13:03:36.621Z,13.10
2019-03-08T13:06:25.738Z,14.80
2019-03-08T13:09:01.997Z,16.10
2019-03-08T13:11:33.370Z,16.30
2019-03-08T13:14:17.068Z,16.30
2019-03-08T13:17:03.562Z,12.30
2019-03-08T13:19:50.023Z,11.60
2019-03-08T13:22:36.547Z,11.90
2019-03-08T13:25:23.243Z,12.30
2019-03-08T13:28:09.634Z,11.70
2019-03-08T13:30:56.144Z,11.20
2019-03-08T13:33:42.558Z,10.80
2019-03-08T13:36:28.968Z,10.60
2019-03-08T13:39:15.358Z,10.20
2019-03-08T13:42:01.883Z,11.00
2019-03-08T13:44:48.366Z,13.10
2019-03-08T13:47:35.085Z,14.30
2019-03-08T13:50:21.494Z,15.30
2019-03-08T13:53:08.017Z,15.00
2019-03-08T13:55:34.877Z,15.60
2019-03-08T13:58:21.326Z,13.50
2019-03-08T14:04:00.246Z,12.40
2019-03-08T14:06:40.334Z,11.40
2019-03-08T14:09:20.429Z,11.20
2019-03-08T14:12:00.522Z,10.80
2019-03-08T14:14:40.799Z,10.30
2019-03-08T14:17:20.674Z,11.60
2019-03-08T14:20:00.419Z,11.10
2019-03-08T14:22:40.313Z,11.00
2019-03-08T14:25:20.182Z,11.10
2019-03-08T14:27:47.037Z,10.80
2019-03-08T14:33:45.119Z,11.30
2019-03-08T14:36:11.962Z,10.60
2019-03-08T14:38:58.646Z,10.40
2019-03-08T14:44:50.866Z,12.10
2019-03-08T14:47:56.930Z,9.10
2019-03-08T14:50:43.315Z,8.00
2019-03-08T14:53:32.926Z,6.80
2019-03-08T14:56:18.017Z,6.70
2019-03-08T14:58:57.500Z,6.10
2019-03-08T15:01:39.950Z,6.70
2019-03-08T15:04:19.263Z,6.60
2019-03-08T15:07:01.261Z,6.80
2019-03-08T15:09:41.287Z,6.50
2019-03-08T15:12:21.246Z,6.80
2019-03-08T15:14:48.306Z,8.60
2019-03-08T15:17:34.808Z,13.10
2019-03-08T15:23:13.312Z,13.60
2019-03-08T15:25:58.356Z,11.70
2019-03-08T15:28:46.685Z,12.00
2019-03-08T15:34:21.516Z,13.50
2019-03-08T15:39:54.550Z,12.80
2019-03-08T15:45:27.692Z,11.30
2019-03-08T15:51:04.145Z,11.90
2019-03-08T15:53:50.580Z,12.10
2019-03-08T15:56:37.087Z,11.00
2019-03-08T15:59:18.566Z,11.30
2019-03-08T16:01:57.803Z,11.20
2019-03-08T16:04:37.731Z,11.20
2019-03-08T16:07:19.006Z,11.20
2019-03-08T16:09:59.664Z,11.20
2019-03-08T16:12:39.686Z,11.90
2019-03-08T16:15:18.944Z,10.60
2019-03-08T16:17:58.875Z,9.60
2019-03-08T16:20:38.960Z,9.40
2019-03-08T16:23:18.213Z,8.30
2019-03-08T16:25:57.680Z,8.20
2019-03-08T16:28:37.590Z,8.10
2019-03-08T16:34:05.280Z,8.20
2019-03-08T16:37:14.234Z,7.70
2019-03-08T16:40:20.485Z,7.90
2019-03-08T16:43:26.589Z,7.60
2019-03-08T16:46:32.789Z,8.20
2019-03-08T16:55:51.538Z,7.50
2019-03-08T16:58:46.466Z,7.80
2019-03-08T17:01:52.528Z,7.70
2019-03-08T17:04:58.674Z,6.40
2019-03-08T17:08:04.730Z,7.40
2019-03-08T17:11:11.149Z,7.10
2019-03-08T17:14:17.292Z,7.40
2019-03-08T17:17:23.692Z,7.30
2019-03-08T17:20:29.940Z,7.30
2019-03-08T17:23:35.991Z,8.00
2019-03-08T17:26:22.681Z,7.30
2019-03-08T17:29:29.143Z,7.40
2019-03-08T17:32:35.859Z,7.20
2019-03-08T17:35:42.012Z,7.20
2019-03-08T17:38:48.121Z,8.10
2019-03-08T17:41:22.608Z,7.20
2019-03-08T17:44:28.821Z,7.20
2019-03-08T17:47:20.191Z,7.20
2019-03-08T17:50:26.867Z,7.30
2019-03-08T17:53:32.961Z,7.20
2019-03-08T17:56:39.352Z,7.30
2019-03-08T17:59:38.367Z,7.00
2019-03-08T18:02:15.277Z,6.90
2019-03-08T18:05:21.359Z,6.80
2019-03-08T18:08:28.229Z,6.30
2019-03-08T18:11:34.719Z,7.20
2019-03-08T18:14:40.806Z,6.80
2019-03-08T18:17:35.150Z,7.90
2019-03-08T18:20:41.990Z,7.60
2019-03-08T18:23:48.070Z,6.50
2019-03-08T18:26:54.388Z,6.90
2019-03-08T18:30:00.491Z,6.40
2019-03-08T18:33:06.641Z,5.70
2019-03-08T18:36:12.822Z,8.60
2019-03-08T18:39:00.067Z,5.50
2019-03-08T18:42:06.364Z,6.00
2019-03-08T18:45:12.624Z,5.40
2019-03-08T18:48:18.799Z,5.80
2019-03-08T18:51:25.032Z,5.70
2019-03-08T18:54:31.118Z,5.50
2019-03-08T18:57:26.472Z,6.00
2019-03-08T19:00:26.139Z,5.20
2019-03-08T19:03:25.499Z,5.40
2019-03-08T19:06:26.780Z,4.60
2019-03-08T19:09:12.595Z,4.70
2019-03-08T19:12:07.244Z,4.90
2019-03-08T19:15:07.110Z,4.80
2019-03-08T19:18:12.343Z,4.70
2019-03-08T19:21:13.582Z,4.50
2019-03-08T19:24:12.939Z,4.60
2019-03-08T19:26:47.071Z,3.70
2019-03-08T19:29:53.248Z,4.40
2019-03-08T19:32:59.302Z,3.60
2019-03-08T19:36:05.386Z,4.00
2019-03-08T19:39:11.432Z,4.00
2019-03-08T19:42:17.629Z,4.10
2019-03-08T19:45:24.248Z,3.30
2019-03-08T19:48:30.427Z,5.40
2019-03-08T19:51:36.669Z,4.40
2019-03-08T19:54:23.640Z,4.30
2019-03-08T19:57:10.661Z,4.30
2019-03-08T20:00:16.154Z,4.30
2019-03-08T20:03:07.141Z,4.30
2019-03-08T20:06:12.269Z,4.40
2019-03-08T20:09:11.662Z,3.90
2019-03-08T20:12:16.616Z,4.90
2019-03-08T20:15:15.958Z,4.20
2019-03-08T20:18:03.513Z,5.30
2019-03-08T20:20:39.997Z,3.90
2019-03-08T20:23:26.423Z,3.90
2019-03-08T20:26:32.623Z,3.90
2019-03-08T20:29:38.736Z,3.70
2019-03-08T20:32:45.182Z,3.90
2019-03-08T20:35:38.509Z,4.00
2019-03-08T20:38:44.568Z,3.80
2019-03-08T20:41:50.705Z,3.90
2019-03-08T20:44:56.762Z,3.80
2019-03-08T20:47:43.154Z,3.80
2019-03-08T20:50:29.567Z,4.90
2019-03-08T20:52:56.815Z,3.60
2019-03-08T20:55:43.324Z,3.60
2019-03-08T20:58:29.997Z,3.80
2019-03-08T21:01:09.648Z,3.20
2019-03-08T21:03:50.173Z,3.40
2019-03-08T21:06:30.050Z,3.90
2019-03-08T21:09:10.438Z,3.80
2019-03-08T21:11:50.114Z,2.90
2019-03-08T21:14:30.376Z,3.80
2019-03-08T21:17:10.297Z,3.10
2019-03-08T21:19:50.367Z,3.40
2019-03-08T21:22:30.523Z,3.40
2019-03-08T21:25:10.695Z,3.40
2019-03-08T21:27:50.665Z,3.20
2019-03-08T21:30:30.974Z,3.30
2019-03-08T21:32:58.119Z,3.50
2019-03-08T21:35:46.663Z,3.50
2019-03-08T21:38:33.453Z,3.50
2019-03-08T21:41:00.443Z,3.50
2019-03-08T21:43:46.851Z,3.50
2019-03-08T21:46:33.399Z,3.60
2019-03-08T21:49:20.162Z,3.50
2019-03-08T21:52:06.785Z,3.80
2019-03-08T21:54:53.282Z,3.60
2019-03-08T21:57:39.684Z,4.00
2019-03-08T22:00:20.178Z,4.00
2019-03-08T22:03:00.054Z,4.40
2019-03-08T22:05:30.240Z,3.70
2019-03-08T22:08:18.029Z,3.70
2019-03-08T22:11:25.246Z,3.80
2019-03-08T22:14:11.882Z,3.60
2019-03-08T22:16:58.720Z,3.90
2019-03-08T22:19:25.464Z,3.20
2019-03-08T22:22:11.887Z,3.80
2019-03-08T22:24:58.273Z,3.90
2019-03-08T22:27:45.029Z,3.90
2019-03-08T22:30:32.089Z,4.50
2019-03-08T22:33:18.706Z,4.00
2019-03-08T22:36:05.555Z,3.90
2019-03-08T22:38:52.062Z,3.90
2019-03-08T22:41:38.698Z,4.80
2019-03-08T22:44:25.351Z,3.90
2019-03-08T22:47:11.861Z,3.90
2019-03-08T22:49:58.818Z,3.50
2019-03-08T22:52:45.313Z,3.90
2019-03-08T22:55:12.279Z,4.10
2019-03-08T22:57:59.055Z,3.90
2019-03-08T23:00:58.143Z,3.00
2019-03-08T23:03:37.735Z,3.50
2019-03-08T23:06:17.827Z,4.00
2019-03-08T23:08:57.995Z,4.00
2019-03-08T23:11:38.204Z,4.00
2019-03-08T23:14:18.545Z,3.30
2019-03-08T23:16:58.559Z,3.80
2019-03-08T23:19:38.575Z,4.00
2019-03-08T23:22:18.548Z,4.00
2019-03-08T23:24:58.773Z,4.20
2019-03-08T23:27:43.306Z,4.00
2019-03-08T23:30:25.779Z,4.00
2019-03-08T23:33:05.915Z,4.00
2019-03-08T23:35:46.052Z,4.20
2019-03-08T23:38:25.706Z,4.20
2019-03-08T23:41:05.087Z,4.40
2019-03-08T23:43:45.139Z,4.30
2019-03-08T23:46:25.425Z,4.60
2019-03-08T23:49:05.603Z,4.90
2019-03-08T23:51:45.622Z,3.90
2019-03-08T23:54:24.948Z,4.00
2019-03-08T23:57:04.919Z,4.30
2019-03-08T23:59:45.213Z,4.60
